createdAt,value
2018-05-26T00:00:06.651Z,475
2018-05-26T00:01:13.893Z,473
2018-05-26T00:02:21.099Z,470
2018-05-26T00:03:28.350Z,468
2018-05-26T00:04:35.556Z,465
2018-05-26T00:05:42.763Z,464
2018-05-26T00:06:49.977Z,465
2018-05-26T00:07:56.922Z,465
2018-05-26T00:09:04.136Z,465
2018-05-26T00:10:11.346Z,466
2018-05-26T00:11:18.567Z,467
2018-05-26T00:12:25.771Z,468
2018-05-26T00:13:32.982Z,470
2018-05-26T00:14:40.186Z,471
2018-05-26T00:15:47.397Z,472
2018-05-26T00:16:54.605Z,473
2018-05-26T00:18:01.827Z,474
2018-05-26T00:19:09.036Z,475
2018-05-26T00:20:16.253Z,475
2018-05-26T00:21:23.470Z,475
2018-05-26T00:22:30.693Z,476
2018-05-26T00:23:37.908Z,476
2018-05-26T00:24:44.854Z,477
2018-05-26T00:25:52.067Z,476
2018-05-26T00:26:59.267Z,475
2018-05-26T00:28:06.480Z,475
2018-05-26T00:29:13.687Z,476
2018-05-26T00:30:20.901Z,478
2018-05-26T00:31:28.108Z,477
2018-05-26T00:32:35.318Z,479
2018-05-26T00:33:42.531Z,480
2018-05-26T00:34:49.456Z,480
2018-05-26T00:35:56.398Z,481
2018-05-26T00:37:03.609Z,482
2018-05-26T00:38:10.822Z,485
2018-05-26T00:39:18.025Z,486
2018-05-26T00:40:25.236Z,487
2018-05-26T00:41:32.473Z,487
2018-05-26T00:42:39.394Z,488
2018-05-26T00:43:46.609Z,488
2018-05-26T00:44:53.822Z,489
2018-05-26T00:46:00.757Z,489
2018-05-26T00:47:07.967Z,490
2018-05-26T00:48:15.171Z,490
2018-05-26T00:49:22.104Z,489
2018-05-26T00:50:29.319Z,489
2018-05-26T00:51:36.532Z,488
2018-05-26T00:52:43.747Z,490
2018-05-26T00:53:50.956Z,489
2018-05-26T00:54:57.892Z,488
2018-05-26T00:56:05.108Z,487
2018-05-26T00:57:12.036Z,487
2018-05-26T00:58:19.253Z,486
2018-05-26T00:59:26.509Z,486
2018-05-26T01:00:33.721Z,485
2018-05-26T01:01:41.165Z,484
2018-05-26T01:02:48.383Z,484
2018-05-26T01:03:55.597Z,482
2018-05-26T01:05:02.539Z,482
2018-05-26T01:06:09.499Z,482
2018-05-26T01:07:16.463Z,480
2018-05-26T01:08:23.672Z,479
2018-05-26T01:09:30.890Z,478
2018-05-26T01:10:38.339Z,478
2018-05-26T01:11:45.545Z,477
2018-05-26T01:12:52.787Z,476
2018-05-26T01:13:59.988Z,475
2018-05-26T01:15:07.413Z,475
2018-05-26T01:16:14.637Z,474
2018-05-26T01:17:21.847Z,473
2018-05-26T01:18:29.098Z,473
2018-05-26T01:19:36.304Z,472
2018-05-26T01:20:43.240Z,472
2018-05-26T01:21:50.468Z,470
2018-05-26T01:22:57.423Z,470
2018-05-26T01:24:04.858Z,470
2018-05-26T01:25:11.541Z,469
2018-05-26T01:26:18.966Z,469
2018-05-26T01:27:25.909Z,468
2018-05-26T01:28:33.127Z,467
2018-05-26T01:29:40.079Z,467
2018-05-26T01:30:47.290Z,467
2018-05-26T01:31:54.549Z,466
2018-05-26T01:33:01.755Z,465
2018-05-26T01:34:08.967Z,465
2018-05-26T01:35:16.199Z,464
2018-05-26T01:36:23.414Z,463
2018-05-26T01:37:30.564Z,462
2018-05-26T01:38:37.777Z,462
2018-05-26T01:39:45.003Z,461
2018-05-26T01:40:52.252Z,461
2018-05-26T01:41:59.187Z,461
2018-05-26T01:43:06.393Z,461
2018-05-26T01:44:13.616Z,460
2018-05-26T01:45:20.551Z,459
2018-05-26T01:46:27.783Z,460
2018-05-26T01:47:34.991Z,459
2018-05-26T01:48:42.213Z,459
2018-05-26T01:49:49.136Z,459
2018-05-26T01:50:56.575Z,459
2018-05-26T01:52:03.784Z,458
2018-05-26T01:53:10.736Z,457
2018-05-26T01:54:17.943Z,457
2018-05-26T01:55:25.158Z,457
2018-05-26T01:56:32.366Z,457
2018-05-26T01:57:39.301Z,456
2018-05-26T01:58:46.234Z,457
2018-05-26T01:59:53.415Z,456
2018-05-26T02:01:00.631Z,456
2018-05-26T02:02:07.842Z,455
2018-05-26T02:03:15.054Z,455
2018-05-26T02:04:22.276Z,454
2018-05-26T02:05:29.481Z,454
2018-05-26T02:06:51.344Z,454
2018-05-26T02:07:58.551Z,453
2018-05-26T02:09:05.482Z,453
2018-05-26T02:10:12.700Z,453
2018-05-26T02:11:19.907Z,453
2018-05-26T02:12:27.119Z,453
2018-05-26T02:13:34.326Z,452
2018-05-26T02:14:41.257Z,451
2018-05-26T02:15:48.464Z,452
2018-05-26T02:16:55.666Z,451
2018-05-26T02:18:02.885Z,451
2018-05-26T02:19:10.089Z,450
2018-05-26T02:20:17.291Z,450
2018-05-26T02:21:24.496Z,450
2018-05-26T02:22:31.708Z,450
2018-05-26T02:23:38.920Z,449
2018-05-26T02:24:46.145Z,449
2018-05-26T02:25:53.348Z,449
2018-05-26T02:27:00.558Z,449
2018-05-26T02:28:07.497Z,449
2018-05-26T02:29:14.703Z,448
2018-05-26T02:30:21.917Z,448
2018-05-26T02:31:29.118Z,448
2018-05-26T02:32:36.334Z,448
2018-05-26T02:33:43.265Z,448
2018-05-26T02:34:50.218Z,448
2018-05-26T02:35:57.424Z,448
2018-05-26T02:37:04.654Z,448
2018-05-26T02:38:11.855Z,448
2018-05-26T02:39:18.783Z,447
2018-05-26T02:40:26.001Z,447
2018-05-26T02:41:33.215Z,447
2018-05-26T02:42:40.421Z,447
2018-05-26T02:43:47.624Z,447
2018-05-26T02:44:54.837Z,447
2018-05-26T02:46:02.069Z,447
2018-05-26T02:47:09.002Z,447
2018-05-26T02:48:16.215Z,447
2018-05-26T02:49:23.413Z,446
2018-05-26T02:50:30.621Z,446
2018-05-26T02:51:37.848Z,445
2018-05-26T02:52:45.097Z,446
2018-05-26T02:53:52.309Z,445
2018-05-26T02:54:59.537Z,444
2018-05-26T02:56:06.815Z,444
2018-05-26T02:57:14.006Z,444
2018-05-26T02:58:21.243Z,444
2018-05-26T02:59:28.459Z,443
2018-05-26T03:00:35.402Z,444
2018-05-26T03:01:42.610Z,444
2018-05-26T03:02:49.294Z,444
2018-05-26T03:03:56.240Z,445
2018-05-26T03:05:03.167Z,444
2018-05-26T03:06:10.374Z,443
2018-05-26T03:07:17.609Z,443
2018-05-26T03:08:24.830Z,443
2018-05-26T03:09:31.779Z,443
2018-05-26T03:10:39.005Z,442
2018-05-26T03:11:46.215Z,442
2018-05-26T03:12:53.151Z,442
2018-05-26T03:14:00.109Z,443
2018-05-26T03:15:07.321Z,443
2018-05-26T03:16:14.486Z,442
2018-05-26T03:17:21.694Z,442
2018-05-26T03:18:29.134Z,441
2018-05-26T03:19:36.360Z,442
2018-05-26T03:20:43.595Z,441
2018-05-26T03:21:50.812Z,441
2018-05-26T03:22:58.045Z,442
2018-05-26T03:24:05.265Z,442
2018-05-26T03:25:12.704Z,440
2018-05-26T03:26:19.642Z,441
2018-05-26T03:27:27.072Z,440
2018-05-26T03:28:34.000Z,441
2018-05-26T03:29:41.224Z,441
2018-05-26T03:30:48.433Z,441
2018-05-26T03:31:55.894Z,440
2018-05-26T03:33:03.102Z,440
2018-05-26T03:34:10.041Z,439
2018-05-26T03:35:17.255Z,439
2018-05-26T03:36:24.667Z,439
2018-05-26T03:37:31.980Z,439
2018-05-26T03:38:39.192Z,439
2018-05-26T03:39:46.403Z,439
2018-05-26T03:40:53.339Z,438
2018-05-26T03:42:00.549Z,439
2018-05-26T03:43:07.770Z,439
2018-05-26T03:44:14.983Z,439
2018-05-26T03:45:22.442Z,439
2018-05-26T03:46:29.634Z,438
2018-05-26T03:47:36.842Z,438
2018-05-26T03:48:44.043Z,437
2018-05-26T03:49:51.249Z,438
2018-05-26T03:50:58.460Z,438
2018-05-26T03:52:05.682Z,437
2018-05-26T03:53:12.896Z,438
2018-05-26T03:54:20.110Z,438
2018-05-26T03:55:27.051Z,437
2018-05-26T03:56:34.273Z,438
2018-05-26T03:57:41.248Z,438
2018-05-26T03:58:48.475Z,437
2018-05-26T03:59:55.691Z,438
2018-05-26T04:01:02.899Z,438
2018-05-26T04:02:10.114Z,438
2018-05-26T04:03:17.097Z,437
2018-05-26T04:04:24.287Z,437
2018-05-26T04:05:31.517Z,437
2018-05-26T04:06:38.450Z,437
2018-05-26T04:07:45.661Z,437
2018-05-26T04:08:52.873Z,436
2018-05-26T04:10:00.082Z,436
2018-05-26T04:11:07.019Z,435
2018-05-26T04:12:14.248Z,435
2018-05-26T04:13:21.460Z,434
2018-05-26T04:14:28.673Z,435
2018-05-26T04:15:35.876Z,435
2018-05-26T04:16:43.083Z,435
2018-05-26T04:17:50.310Z,435
2018-05-26T04:18:57.252Z,435
2018-05-26T04:20:04.458Z,435
2018-05-26T04:21:11.682Z,435
2018-05-26T04:22:18.621Z,434
2018-05-26T04:23:25.835Z,434
2018-05-26T04:24:33.047Z,435
2018-05-26T04:25:40.284Z,434
2018-05-26T04:26:47.493Z,434
2018-05-26T04:27:54.729Z,434
2018-05-26T04:29:01.922Z,434
2018-05-26T04:30:08.892Z,434
2018-05-26T04:31:16.084Z,434
2018-05-26T04:32:23.284Z,434
2018-05-26T04:33:30.504Z,434
2018-05-26T04:34:37.715Z,435
2018-05-26T04:35:44.944Z,434
2018-05-26T04:36:52.152Z,434
2018-05-26T04:37:59.365Z,434
2018-05-26T04:39:07.547Z,434
2018-05-26T04:40:14.790Z,434
2018-05-26T04:41:21.744Z,433
2018-05-26T04:42:28.949Z,434
2018-05-26T04:43:36.163Z,434
2018-05-26T04:44:43.376Z,433
2018-05-26T04:45:50.581Z,433
2018-05-26T04:46:57.805Z,433
2018-05-26T04:48:05.023Z,434
2018-05-26T04:49:12.225Z,434
2018-05-26T04:50:19.157Z,433
2018-05-26T04:51:26.378Z,433
2018-05-26T04:52:33.589Z,433
2018-05-26T04:53:40.815Z,433
2018-05-26T04:54:48.029Z,433
2018-05-26T04:55:55.254Z,433
2018-05-26T04:57:02.193Z,434
2018-05-26T04:58:09.405Z,432
2018-05-26T04:59:16.623Z,433
2018-05-26T05:00:23.830Z,433
2018-05-26T05:01:31.043Z,433
2018-05-26T05:02:38.261Z,433
2018-05-26T05:03:45.465Z,433
2018-05-26T05:04:52.677Z,435
2018-05-26T05:05:59.885Z,434
2018-05-26T05:07:06.821Z,435
2018-05-26T05:08:13.752Z,433
2018-05-26T05:09:20.711Z,434
2018-05-26T05:10:27.916Z,434
2018-05-26T05:11:34.859Z,435
2018-05-26T05:12:42.073Z,434
2018-05-26T05:13:49.011Z,425
2018-05-26T05:14:55.956Z,419
2018-05-26T05:16:03.174Z,413
2018-05-26T05:17:10.421Z,408
2018-05-26T05:18:17.631Z,403
2018-05-26T05:19:24.600Z,401
2018-05-26T05:20:31.816Z,400
2018-05-26T05:21:39.030Z,401
2018-05-26T05:22:46.257Z,401
2018-05-26T05:23:53.474Z,402
2018-05-26T05:25:00.422Z,402
2018-05-26T05:26:07.634Z,402
2018-05-26T05:27:14.560Z,402
2018-05-26T05:28:21.774Z,403
2018-05-26T05:29:28.982Z,402
2018-05-26T05:30:35.917Z,402
2018-05-26T05:31:43.137Z,402
2018-05-26T05:32:50.350Z,403
2018-05-26T05:33:57.570Z,403
2018-05-26T05:35:04.506Z,403
2018-05-26T05:36:11.714Z,403
2018-05-26T05:37:18.925Z,403
2018-05-26T05:38:26.135Z,404
2018-05-26T05:39:33.348Z,405
2018-05-26T05:40:40.558Z,404
2018-05-26T05:41:47.774Z,405
2018-05-26T05:42:54.987Z,405
2018-05-26T05:44:02.201Z,405
2018-05-26T05:45:09.437Z,406
2018-05-26T05:46:16.648Z,406
2018-05-26T05:47:23.884Z,407
2018-05-26T05:48:31.098Z,407
2018-05-26T05:49:38.478Z,407
2018-05-26T05:50:45.691Z,407
2018-05-26T05:51:52.909Z,407
2018-05-26T05:53:00.118Z,408
2018-05-26T05:54:07.335Z,407
2018-05-26T05:55:14.279Z,408
2018-05-26T05:56:21.642Z,408
2018-05-26T05:57:28.862Z,408
2018-05-26T05:58:36.079Z,408
2018-05-26T05:59:43.290Z,409
2018-05-26T06:00:50.234Z,408
2018-05-26T06:01:57.439Z,409
2018-05-26T06:03:04.676Z,409
2018-05-26T06:04:11.912Z,409
2018-05-26T06:05:19.145Z,409
2018-05-26T06:06:26.356Z,409
2018-05-26T06:07:33.602Z,409
2018-05-26T06:08:40.564Z,409
2018-05-26T06:09:47.780Z,409
2018-05-26T06:10:54.726Z,409
2018-05-26T06:12:01.941Z,409
2018-05-26T06:13:09.156Z,409
2018-05-26T06:14:15.834Z,409
2018-05-26T06:15:23.172Z,409
2018-05-26T06:16:30.446Z,409
2018-05-26T06:17:37.676Z,409
2018-05-26T06:18:44.907Z,409
2018-05-26T06:19:52.124Z,409
2018-05-26T06:20:59.345Z,410
2018-05-26T06:22:06.830Z,409
2018-05-26T06:23:14.047Z,409
2018-05-26T06:24:21.297Z,409
2018-05-26T06:25:28.527Z,409
2018-05-26T06:26:35.973Z,410
2018-05-26T06:27:42.915Z,409
2018-05-26T06:28:50.349Z,409
2018-05-26T06:29:57.569Z,409
2018-05-26T06:31:04.802Z,409
2018-05-26T06:32:12.012Z,410
2018-05-26T06:33:19.675Z,410
2018-05-26T06:34:26.905Z,411
2018-05-26T06:35:34.126Z,411
2018-05-26T06:36:41.381Z,410
2018-05-26T06:37:48.772Z,410
2018-05-26T06:38:55.993Z,411
2018-05-26T06:40:03.215Z,410
2018-05-26T06:41:10.430Z,410
2018-05-26T06:42:17.645Z,410
2018-05-26T06:43:24.870Z,411
2018-05-26T06:44:32.086Z,411
2018-05-26T06:45:39.302Z,410
2018-05-26T06:46:46.529Z,410
2018-05-26T06:47:53.743Z,411
2018-05-26T06:49:00.963Z,411
2018-05-26T06:50:08.177Z,410
2018-05-26T06:51:15.732Z,410
2018-05-26T06:52:22.987Z,411
2018-05-26T06:53:30.238Z,411
2018-05-26T06:54:37.456Z,410
2018-05-26T06:55:44.686Z,411
2018-05-26T06:56:51.907Z,410
2018-05-26T06:57:59.142Z,410
2018-05-26T06:59:06.379Z,410
2018-05-26T07:00:13.716Z,410
2018-05-26T07:01:20.970Z,411
2018-05-26T07:02:28.179Z,411
2018-05-26T07:03:35.418Z,413
2018-05-26T07:04:42.589Z,412
2018-05-26T07:05:49.822Z,412
2018-05-26T07:06:57.273Z,411
2018-05-26T07:08:04.495Z,411
2018-05-26T07:09:11.729Z,412
2018-05-26T07:10:18.966Z,412
2018-05-26T07:11:26.169Z,412
2018-05-26T07:12:33.626Z,413
2018-05-26T07:13:40.863Z,412
2018-05-26T07:14:48.093Z,411
2018-05-26T07:15:55.327Z,413
2018-05-26T07:17:02.543Z,412
2018-05-26T07:18:09.599Z,411
2018-05-26T07:19:16.809Z,410
2018-05-26T07:20:24.020Z,409
2018-05-26T07:21:30.963Z,409
2018-05-26T07:22:38.414Z,411
2018-05-26T07:23:45.646Z,411
2018-05-26T07:24:52.873Z,412
2018-05-26T07:26:00.106Z,411
2018-05-26T07:27:07.324Z,411
2018-05-26T07:28:14.284Z,410
2018-05-26T07:29:21.538Z,410
2018-05-26T07:30:28.753Z,409
2018-05-26T07:31:36.203Z,410
2018-05-26T07:32:43.477Z,409
2018-05-26T07:33:50.832Z,409
2018-05-26T07:34:58.101Z,410
2018-05-26T07:36:05.331Z,411
2018-05-26T07:37:12.545Z,410
2018-05-26T07:38:19.765Z,410
2018-05-26T07:39:26.707Z,410
2018-05-26T07:40:33.931Z,410
2018-05-26T07:41:41.142Z,410
2018-05-26T07:42:48.568Z,411
2018-05-26T07:43:55.791Z,411
2018-05-26T07:45:03.244Z,411
2018-05-26T07:46:10.479Z,410
2018-05-26T07:47:18.124Z,409
2018-05-26T07:48:25.427Z,408
2018-05-26T07:49:32.878Z,408
2018-05-26T07:50:40.097Z,408
2018-05-26T07:51:47.035Z,408
2018-05-26T07:52:54.291Z,408
2018-05-26T07:54:01.498Z,408
2018-05-26T07:55:08.725Z,408
2018-05-26T07:56:15.936Z,408
2018-05-26T07:57:23.157Z,407
2018-05-26T07:58:30.458Z,407
2018-05-26T07:59:37.902Z,407
2018-05-26T08:00:45.215Z,407
2018-05-26T08:01:52.160Z,406
2018-05-26T08:02:59.392Z,407
2018-05-26T08:04:06.608Z,407
2018-05-26T08:05:13.833Z,406
2018-05-26T08:06:21.068Z,406
2018-05-26T08:07:28.286Z,407
2018-05-26T08:08:35.508Z,406
2018-05-26T08:09:42.731Z,406
2018-05-26T08:10:50.029Z,406
2018-05-26T08:11:57.289Z,406
2018-05-26T08:13:04.506Z,405
2018-05-26T08:14:11.724Z,404
2018-05-26T08:15:18.940Z,405
2018-05-26T08:16:26.163Z,405
2018-05-26T08:17:33.376Z,404
2018-05-26T08:18:40.347Z,405
2018-05-26T08:19:47.564Z,405
2018-05-26T08:20:54.784Z,404
2018-05-26T08:22:02.002Z,405
2018-05-26T08:23:09.240Z,405
2018-05-26T08:24:16.458Z,406
2018-05-26T08:25:23.130Z,406
2018-05-26T08:26:30.345Z,406
2018-05-26T08:27:37.570Z,405
2018-05-26T08:28:44.787Z,405
2018-05-26T08:29:51.724Z,405
2018-05-26T08:30:58.940Z,405
2018-05-26T08:32:05.892Z,405
2018-05-26T08:33:12.836Z,405
2018-05-26T08:34:20.050Z,404
2018-05-26T08:35:27.272Z,403
2018-05-26T08:36:34.501Z,404
2018-05-26T08:37:41.485Z,403
2018-05-26T08:38:48.432Z,405
2018-05-26T08:39:55.385Z,403
2018-05-26T08:41:02.339Z,403
2018-05-26T08:42:09.559Z,403
2018-05-26T08:43:16.782Z,403
2018-05-26T08:44:23.727Z,402
2018-05-26T08:45:31.034Z,401
2018-05-26T08:46:38.291Z,401
2018-05-26T08:47:45.542Z,401
2018-05-26T08:48:52.768Z,403
2018-05-26T08:49:59.716Z,404
2018-05-26T08:51:06.657Z,405
2018-05-26T08:52:13.963Z,405
2018-05-26T08:53:21.381Z,404
2018-05-26T08:54:28.650Z,404
2018-05-26T08:55:35.875Z,404
2018-05-26T08:56:43.095Z,404
2018-05-26T08:57:50.371Z,405
2018-05-26T08:58:57.591Z,406
2018-05-26T09:00:04.803Z,405
2018-05-26T09:01:11.747Z,403
2018-05-26T09:02:19.128Z,404
2018-05-26T09:03:26.070Z,404
2018-05-26T09:04:33.286Z,403
2018-05-26T09:05:40.287Z,403
2018-05-26T09:06:47.746Z,404
2018-05-26T09:07:54.962Z,404
2018-05-26T09:09:02.183Z,403
2018-05-26T09:10:09.407Z,404
2018-05-26T09:11:16.835Z,405
2018-05-26T09:12:24.119Z,406
2018-05-26T09:13:31.338Z,407
2018-05-26T09:14:38.562Z,405
2018-05-26T09:15:45.517Z,404
2018-05-26T09:16:52.467Z,403
2018-05-26T09:17:59.677Z,403
2018-05-26T09:19:06.913Z,402
2018-05-26T09:20:14.137Z,402
2018-05-26T09:21:21.401Z,402
2018-05-26T09:22:28.646Z,401
2018-05-26T09:23:35.885Z,401
2018-05-26T09:24:42.832Z,400
2018-05-26T09:25:50.063Z,399
2018-05-26T09:26:57.284Z,400
2018-05-26T09:28:04.521Z,402
2018-05-26T09:29:11.743Z,401
2018-05-26T09:30:19.119Z,400
2018-05-26T09:31:26.453Z,402
2018-05-26T09:32:33.638Z,402
2018-05-26T09:33:40.587Z,403
2018-05-26T09:34:47.811Z,402
2018-05-26T09:35:55.027Z,401
2018-05-26T09:37:02.243Z,402
2018-05-26T09:38:09.453Z,403
2018-05-26T09:39:16.672Z,402
2018-05-26T09:40:23.617Z,403
2018-05-26T09:41:30.841Z,405
2018-05-26T09:42:38.060Z,404
2018-05-26T09:43:44.915Z,402
2018-05-26T09:44:52.275Z,403
2018-05-26T09:45:59.505Z,404
2018-05-26T09:47:06.726Z,406
2018-05-26T09:48:13.673Z,406
2018-05-26T09:49:20.897Z,405
2018-05-26T09:50:28.119Z,404
2018-05-26T09:51:35.348Z,401
2018-05-26T09:52:42.023Z,398
2018-05-26T09:53:49.249Z,396
2018-05-26T09:54:56.483Z,393
2018-05-26T09:56:03.862Z,390
2018-05-26T09:57:11.128Z,385
2018-05-26T09:58:18.360Z,382
2018-05-26T09:59:25.599Z,381
2018-05-26T10:00:32.827Z,380
2018-05-26T10:01:40.048Z,377
2018-05-26T10:02:47.270Z,374
2018-05-26T10:03:54.495Z,374
2018-05-26T10:05:01.720Z,376
2018-05-26T10:06:08.963Z,378
2018-05-26T10:07:15.625Z,378
2018-05-26T10:08:22.855Z,375
2018-05-26T10:09:30.072Z,375
2018-05-26T10:10:37.290Z,378
2018-05-26T10:11:44.518Z,374
2018-05-26T10:12:51.989Z,372
2018-05-26T10:13:59.196Z,369
2018-05-26T10:15:06.417Z,369
2018-05-26T10:16:13.640Z,367
2018-05-26T10:17:21.129Z,367
2018-05-26T10:18:28.583Z,364
2018-05-26T10:19:35.799Z,363
2018-05-26T10:20:43.241Z,364
2018-05-26T10:21:50.480Z,363
2018-05-26T10:22:57.700Z,362
2018-05-26T10:24:04.926Z,364
2018-05-26T10:25:12.161Z,365
2018-05-26T10:26:19.537Z,371
2018-05-26T10:27:26.772Z,370
2018-05-26T10:28:33.993Z,369
2018-05-26T10:29:41.237Z,364
2018-05-26T10:30:48.452Z,359
2018-05-26T10:31:55.675Z,355
2018-05-26T10:33:02.898Z,354
2018-05-26T10:34:10.133Z,352
2018-05-26T10:35:17.362Z,350
2018-05-26T10:36:24.316Z,352
2018-05-26T10:37:31.536Z,355
2018-05-26T10:38:38.768Z,361
2018-05-26T10:39:45.991Z,360
2018-05-26T10:40:53.218Z,355
2018-05-26T10:42:00.429Z,351
2018-05-26T10:43:07.388Z,350
2018-05-26T10:44:14.334Z,348
2018-05-26T10:45:21.552Z,349
2018-05-26T10:46:28.785Z,352
2018-05-26T10:47:36.015Z,355
2018-05-26T10:48:42.971Z,352
2018-05-26T10:49:50.192Z,351
2018-05-26T10:50:57.435Z,348
2018-05-26T10:52:04.693Z,357
2018-05-26T10:53:11.919Z,356
2018-05-26T10:54:19.158Z,360
2018-05-26T10:55:26.170Z,360
2018-05-26T10:56:33.814Z,357
2018-05-26T10:57:41.054Z,351
2018-05-26T10:58:48.517Z,349
2018-05-26T22:00:06.956Z,497
2018-05-26T22:01:14.167Z,481
2018-05-26T22:02:21.381Z,478
2018-05-26T22:03:28.598Z,476
2018-05-26T22:04:35.806Z,475
2018-05-26T22:05:43.090Z,474
2018-05-26T22:06:50.295Z,474
2018-05-26T22:07:57.233Z,474
2018-05-26T22:09:04.461Z,473
2018-05-26T22:10:11.679Z,473
2018-05-26T22:11:18.906Z,473
2018-05-26T22:12:26.115Z,473
2018-05-26T22:13:33.328Z,473
2018-05-26T22:14:40.548Z,472
2018-05-26T22:15:47.758Z,473
2018-05-26T22:16:54.969Z,473
2018-05-26T22:18:01.903Z,473
2018-05-26T22:19:08.840Z,473
2018-05-26T22:20:15.800Z,473
2018-05-26T22:21:23.006Z,472
2018-05-26T22:22:30.214Z,473
2018-05-26T22:23:37.425Z,473
2018-05-26T22:24:44.636Z,473
2018-05-26T22:25:51.575Z,473
2018-05-26T22:26:58.809Z,473
2018-05-26T22:28:06.022Z,473
2018-05-26T22:29:13.348Z,473
2018-05-26T22:30:35.268Z,473
2018-05-26T22:31:42.472Z,473
2018-05-26T22:32:49.401Z,473
2018-05-26T22:33:56.615Z,473
2018-05-26T22:35:03.832Z,473
2018-05-26T22:36:10.510Z,473
2018-05-26T22:37:17.715Z,473
2018-05-26T22:38:24.925Z,474
2018-05-26T22:39:31.868Z,474
2018-05-26T22:40:39.086Z,473
2018-05-26T22:41:46.303Z,473
2018-05-26T22:42:53.544Z,473
2018-05-26T22:44:00.212Z,473
2018-05-26T22:45:06.876Z,473
2018-05-26T22:46:13.811Z,472
2018-05-26T22:47:20.522Z,473
2018-05-26T22:48:27.738Z,473
2018-05-26T22:49:34.678Z,473
2018-05-26T22:50:41.616Z,473
2018-05-26T22:51:48.278Z,471
2018-05-26T22:52:54.955Z,472
2018-05-26T22:54:01.884Z,472
2018-05-26T22:55:08.813Z,472
2018-05-26T22:56:15.752Z,472
2018-05-26T22:57:22.963Z,472
2018-05-26T22:58:29.920Z,473
2018-05-26T22:59:37.131Z,473
2018-05-26T23:00:44.337Z,473
2018-05-26T23:01:51.545Z,474
2018-05-26T23:02:58.498Z,473
2018-05-26T23:04:05.428Z,473
2018-05-26T23:05:12.642Z,474
2018-05-26T23:06:19.587Z,474
2018-05-26T23:07:26.528Z,474
2018-05-26T23:08:33.474Z,474
2018-05-26T23:09:40.678Z,473
2018-05-26T23:10:47.885Z,474
2018-05-26T23:11:54.814Z,474
2018-05-26T23:13:02.022Z,474
2018-05-26T23:14:08.981Z,474
2018-05-26T23:15:16.189Z,475
2018-05-26T23:16:23.125Z,474
2018-05-26T23:17:30.346Z,474
2018-05-26T23:18:37.546Z,474
2018-05-26T23:19:44.480Z,474
2018-05-26T23:20:51.413Z,475
2018-05-26T23:21:58.623Z,475
2018-05-26T23:23:05.856Z,475
2018-05-26T23:24:13.209Z,475
2018-05-26T23:25:20.190Z,475
2018-05-26T23:26:27.406Z,475
2018-05-26T23:27:34.648Z,474
2018-05-26T23:28:41.587Z,474
2018-05-26T23:29:49.048Z,475
2018-05-26T23:30:56.261Z,475
2018-05-26T23:32:03.486Z,474
2018-05-26T23:33:10.415Z,474
2018-05-26T23:34:17.641Z,474
2018-05-26T23:35:24.595Z,474
2018-05-26T23:36:31.828Z,474
2018-05-26T23:37:39.053Z,474
2018-05-26T23:38:46.261Z,473
2018-05-26T23:39:53.472Z,473
2018-05-26T23:41:00.450Z,473
2018-05-26T23:42:07.382Z,473
2018-05-26T23:43:14.068Z,473
2018-05-26T23:44:21.283Z,474
2018-05-26T23:45:28.498Z,473
2018-05-26T23:46:35.713Z,472
2018-05-26T23:47:42.924Z,472
2018-05-26T23:48:50.136Z,472
2018-05-26T23:49:57.354Z,473
2018-05-26T23:51:04.564Z,473
2018-05-26T23:52:11.783Z,474
2018-05-26T23:53:18.444Z,474
2018-05-26T23:54:25.665Z,474
2018-05-26T23:55:32.879Z,474
2018-05-26T23:56:40.110Z,475
2018-05-26T23:57:47.338Z,475
2018-05-26T23:58:54.563Z,475
